createdAt,value
2023-03-30T00:02:11.236Z,99206.70
2023-03-30T00:07:18.644Z,99197.43
2023-03-30T00:12:28.014Z,99192.35
2023-03-30T00:17:35.844Z,99192.23
2023-03-30T00:22:45.623Z,99195.27
2023-03-30T00:27:53.794Z,99186.36
2023-03-30T00:33:01.217Z,99187.64
2023-03-30T00:38:08.867Z,99185.09
2023-03-30T00:43:16.612Z,99183.76
2023-03-30T00:48:28.846Z,99175.89
2023-03-30T00:53:40.250Z,99165.73
2023-03-30T00:58:49.470Z,99163.81
2023-03-30T01:04:01.052Z,99161.92
2023-03-30T01:09:08.952Z,99161.79
2023-03-30T01:14:18.834Z,99151.89
2023-03-30T01:20:09.482Z,99154.63
2023-03-30T01:25:38.828Z,99142.38
2023-03-30T01:31:06.170Z,99130.88
2023-03-30T01:36:46.253Z,99130.06
2023-03-30T01:42:01.724Z,99133.88
2023-03-30T01:47:18.009Z,99134.17
2023-03-30T01:52:32.168Z,99137.03
2023-03-30T01:57:45.510Z,99134.73
2023-03-30T02:02:59.657Z,99129.52
2023-03-30T02:08:13.703Z,99126.91
2023-03-30T02:13:24.484Z,99133.87
2023-03-30T02:18:32.471Z,99133.17
2023-03-30T02:23:44.259Z,99127.67
2023-03-30T02:28:53.424Z,99123.15
2023-03-30T02:34:11.288Z,99118.73
2023-03-30T02:39:31.705Z,99117.60
2023-03-30T02:44:50.388Z,99106.48
2023-03-30T02:50:01.983Z,99100.63
2023-03-30T02:55:19.236Z,99096.91
2023-03-30T03:00:31.491Z,99101.69
2023-03-30T03:05:39.373Z,99092.84
2023-03-30T03:10:46.991Z,99088.47
2023-03-30T03:15:56.604Z,99084.11
2023-03-30T03:21:05.971Z,99083.23
2023-03-30T03:26:14.732Z,99073.58
2023-03-30T03:31:24.641Z,99072.85
2023-03-30T03:36:33.121Z,99066.61
2023-03-30T03:41:40.843Z,99052.26
2023-03-30T03:46:48.815Z,99043.71
2023-03-30T03:51:56.227Z,99039.30
2023-03-30T03:57:04.216Z,99035.98
2023-03-30T04:02:12.009Z,99032.98
2023-03-30T04:07:19.656Z,99028.50
2023-03-30T04:12:27.820Z,99022.16
2023-03-30T04:17:35.638Z,99015.59
2023-03-30T04:22:46.456Z,99014.00
2023-03-30T04:27:54.698Z,99008.29
2023-03-30T04:33:05.120Z,99001.46
2023-03-30T04:38:13.676Z,98993.63
2023-03-30T04:43:23.212Z,98989.70
2023-03-30T04:48:30.982Z,98988.94
2023-03-30T04:53:40.477Z,98985.92
2023-03-30T04:58:48.124Z,98979.58
2023-03-30T05:03:55.668Z,98975.81
2023-03-30T05:09:03.272Z,98980.53
2023-03-30T05:14:10.827Z,98980.94
2023-03-30T05:19:19.359Z,98975.52
2023-03-30T05:24:27.385Z,98966.79
2023-03-30T05:29:34.850Z,98966.55
2023-03-30T05:34:42.371Z,98963.79
2023-03-30T05:39:51.409Z,98962.60
2023-03-30T05:44:58.993Z,98963.95
2023-03-30T05:50:11.835Z,98960.67
2023-03-30T05:55:19.650Z,98961.34
2023-03-30T06:00:27.539Z,98961.05
2023-03-30T06:05:35.915Z,98961.70
2023-03-30T06:10:43.606Z,98952.56
2023-03-30T06:15:51.368Z,98948.73
2023-03-30T06:20:58.908Z,98940.77
2023-03-30T06:26:07.843Z,98935.79
2023-03-30T06:31:15.612Z,98931.27
2023-03-30T06:36:44.370Z,98930.45
2023-03-30T06:46:15.420Z,98919.33
2023-03-30T06:51:23.113Z,98919.56
2023-03-30T06:56:30.991Z,98914.48
2023-03-30T07:01:38.782Z,98912.08
2023-03-30T07:06:46.352Z,98910.67
2023-03-30T07:11:56.495Z,98905.85
2023-03-30T07:17:04.469Z,98901.50
2023-03-30T07:22:12.420Z,98898.27
2023-03-30T07:27:20.163Z,98895.69
2023-03-30T07:32:28.325Z,98886.73
2023-03-30T07:37:37.936Z,98879.48
2023-03-30T07:42:45.643Z,98879.45
2023-03-30T07:47:53.853Z,98876.84
2023-03-30T07:53:01.476Z,98871.43
2023-03-30T07:58:09.179Z,98869.98
2023-03-30T08:03:17.115Z,98872.08
2023-03-30T08:08:25.533Z,98863.88
2023-03-30T08:13:33.723Z,98852.64
2023-03-30T08:18:43.316Z,98836.38
2023-03-30T08:23:51.092Z,98828.56
2023-03-30T08:28:58.811Z,98831.69
2023-03-30T08:34:08.195Z,98835.46
2023-03-30T08:39:16.552Z,98833.38
2023-03-30T08:44:35.562Z,98835.09
2023-03-30T08:49:49.522Z,98831.49
2023-03-30T08:54:58.276Z,98825.91
2023-03-30T09:00:27.874Z,98821.04
2023-03-30T09:05:39.280Z,98818.68
2023-03-30T09:10:51.914Z,98818.65
2023-03-30T09:16:04.650Z,98819.61
2023-03-30T09:21:15.212Z,98811.23
2023-03-30T09:26:30.914Z,98804.24
2023-03-30T09:31:44.721Z,98794.92
2023-03-30T09:36:59.568Z,98780.09
2023-03-30T09:42:20.503Z,98769.98
2023-03-30T09:47:30.464Z,98755.26
2023-03-30T09:52:40.974Z,98742.14
2023-03-30T09:57:49.061Z,98741.08
2023-03-30T10:03:03.189Z,98743.16
2023-03-30T10:08:25.026Z,98736.67
2023-03-30T10:13:37.755Z,98734.30
2023-03-30T10:18:47.695Z,98722.00
2023-03-30T10:24:08.351Z,98716.26
2023-03-30T10:29:19.865Z,98696.16
2023-03-30T10:34:41.298Z,98681.85
2023-03-30T10:45:29.217Z,98669.05
2023-03-30T10:50:46.479Z,98662.88
2023-03-30T10:56:03.324Z,98641.77
2023-03-30T11:01:20.302Z,98638.50
2023-03-30T11:06:33.413Z,98629.48
2023-03-30T11:11:47.053Z,98618.67
2023-03-30T11:17:00.302Z,98606.33
2023-03-30T11:22:13.082Z,98599.72
2023-03-30T11:27:28.112Z,98586.27
2023-03-30T11:32:45.592Z,98592.45
2023-03-30T11:37:59.181Z,98592.31
2023-03-30T11:43:06.709Z,98586.86
2023-03-30T11:48:30.500Z,98577.20
2023-03-30T11:53:50.057Z,98575.29
2023-03-30T11:59:06.448Z,98576.33
2023-03-30T12:04:17.399Z,98579.88
2023-03-30T12:09:29.854Z,98579.45
2023-03-30T12:14:56.461Z,98572.84
2023-03-30T12:20:13.065Z,98555.39
2023-03-30T12:25:30.038Z,98542.91
2023-03-30T12:30:45.354Z,98528.98
2023-03-30T12:36:01.157Z,98518.67
2023-03-30T12:46:26.664Z,98516.25
2023-03-30T12:51:51.213Z,98517.13
2023-03-30T12:57:04.556Z,98527.05
2023-03-30T13:02:32.716Z,98531.04
2023-03-30T13:07:43.506Z,98529.92
2023-03-30T13:12:51.626Z,98532.94
2023-03-30T13:18:04.382Z,98526.91
2023-03-30T13:23:35.070Z,98529.48
2023-03-30T13:29:05.481Z,98527.65
2023-03-30T13:34:22.128Z,98528.14
2023-03-30T13:39:35.916Z,98524.55
2023-03-30T13:44:57.380Z,98516.89
2023-03-30T13:50:08.515Z,98519.26
2023-03-30T13:55:33.126Z,98515.95
2023-03-30T14:00:48.593Z,98521.16
2023-03-30T14:06:04.551Z,98516.12
2023-03-30T14:11:19.362Z,98518.02
2023-03-30T14:16:28.726Z,98520.27
2023-03-30T14:21:38.114Z,98517.23
2023-03-30T14:26:48.125Z,98512.23
2023-03-30T14:32:07.151Z,98499.92
2023-03-30T14:37:19.092Z,98495.35
2023-03-30T14:42:34.280Z,98497.31
2023-03-30T14:47:42.453Z,98493.88
2023-03-30T14:52:52.682Z,98489.20
2023-03-30T14:58:01.247Z,98484.41
2023-03-30T15:03:19.605Z,98479.79
2023-03-30T15:08:34.850Z,98480.44
2023-03-30T15:13:45.844Z,98479.29
2023-03-30T15:18:54.641Z,98475.86
2023-03-30T15:24:03.453Z,98476.06
2023-03-30T15:29:12.035Z,98475.73
2023-03-30T15:34:22.564Z,98477.39
2023-03-30T15:39:36.537Z,98474.19
2023-03-30T15:44:44.904Z,98467.41
2023-03-30T15:49:53.741Z,98466.45
2023-03-30T15:55:08.729Z,98456.84
2023-03-30T16:00:20.767Z,98448.61
2023-03-30T16:05:30.337Z,98444.98
2023-03-30T16:10:40.570Z,98440.81
2023-03-30T16:15:48.931Z,98440.36
2023-03-30T16:20:56.606Z,98433.57
2023-03-30T16:26:04.293Z,98421.17
2023-03-30T16:31:18.540Z,98423.71
2023-03-30T16:36:28.014Z,98425.61
2023-03-30T16:41:35.561Z,98421.56
2023-03-30T16:46:43.694Z,98423.13
2023-03-30T16:51:52.600Z,98417.79
2023-03-30T16:57:02.552Z,98414.08
2023-03-30T17:02:16.930Z,98412.70
2023-03-30T17:07:26.909Z,98403.08
2023-03-30T17:12:35.351Z,98404.29
2023-03-30T17:17:42.966Z,98402.92
2023-03-30T17:22:51.179Z,98406.48
2023-03-30T17:27:59.931Z,98404.99
2023-03-30T17:33:11.122Z,98401.98
2023-03-30T17:38:19.728Z,98395.21
2023-03-30T17:43:27.645Z,98392.23
2023-03-30T17:48:35.310Z,98386.30
2023-03-30T17:53:43.795Z,98378.42
2023-03-30T17:58:53.515Z,98377.15
2023-03-30T18:04:01.246Z,98372.13
2023-03-30T18:09:11.659Z,98375.51
2023-03-30T18:14:19.868Z,98377.52
2023-03-30T18:19:28.937Z,98385.21
2023-03-30T18:24:36.678Z,98393.46
2023-03-30T18:29:44.279Z,98392.95
2023-03-30T18:34:51.879Z,98393.19
2023-03-30T18:45:36.211Z,98376.84
2023-03-30T18:50:45.922Z,98375.14
2023-03-30T18:55:57.429Z,98375.34
2023-03-30T19:01:07.109Z,98381.45
2023-03-30T19:06:20.021Z,98374.84
2023-03-30T19:11:28.710Z,98375.92
2023-03-30T19:16:36.645Z,98374.02
2023-03-30T19:21:46.505Z,98373.10
2023-03-30T19:26:54.019Z,98368.63
2023-03-30T19:32:01.919Z,98364.57
2023-03-30T19:37:09.421Z,98358.39
2023-03-30T19:42:18.061Z,98358.54
2023-03-30T19:47:29.078Z,98358.84
2023-03-30T19:52:37.330Z,98355.30
2023-03-30T19:57:45.001Z,98354.69
2023-03-30T20:02:55.448Z,98359.20
2023-03-30T20:08:07.998Z,98360.80
2023-03-30T20:13:22.134Z,98358.45
2023-03-30T20:18:31.277Z,98353.26
2023-03-30T20:23:38.511Z,98347.94
2023-03-30T20:28:46.146Z,98350.37
2023-03-30T20:33:54.856Z,98350.02
2023-03-30T20:39:02.346Z,98343.23
2023-03-30T20:44:12.908Z,98341.21
2023-03-30T20:49:20.664Z,98333.91
2023-03-30T20:54:29.133Z,98338.46
2023-03-30T20:59:36.702Z,98334.36
2023-03-30T21:04:45.606Z,98333.39
2023-03-30T21:09:53.568Z,98317.37
2023-03-30T21:15:01.054Z,98314.35
2023-03-30T21:20:11.242Z,98310.01
2023-03-30T21:25:19.074Z,98308.80
2023-03-30T21:30:28.759Z,98312.48
2023-03-30T21:35:36.366Z,98312.64
2023-03-30T21:40:44.439Z,98309.95
2023-03-30T21:45:57.302Z,98308.71
2023-03-30T21:51:07.610Z,98297.84
2023-03-30T21:56:16.788Z,98286.89
2023-03-30T22:01:25.337Z,98287.72
2023-03-30T22:06:33.351Z,98284.66
2023-03-30T22:11:41.308Z,98285.41
2023-03-30T22:16:49.262Z,98278.63
2023-03-30T22:21:57.257Z,98275.62
2023-03-30T22:27:05.185Z,98279.92
2023-03-30T22:32:12.639Z,98270.31
2023-03-30T22:37:20.473Z,98264.80
2023-03-30T22:42:28.113Z,98259.60
2023-03-30T22:47:35.849Z,98257.81
2023-03-30T22:52:43.168Z,98257.02
2023-03-30T22:57:52.811Z,98258.69
2023-03-30T23:03:00.813Z,98254.58
2023-03-30T23:08:09.540Z,98251.45
2023-03-30T23:13:17.085Z,98247.34
2023-03-30T23:18:24.526Z,98253.87
2023-03-30T23:23:32.206Z,98261.85
2023-03-30T23:28:41.647Z,98262.78
2023-03-30T23:33:49.549Z,98264.09
2023-03-30T23:38:57.348Z,98261.14
2023-03-30T23:44:05.060Z,98264.20
2023-03-30T23:49:13.710Z,98261.41
2023-03-30T23:54:25.735Z,98266.08
2023-03-30T23:59:33.869Z,98271.08
